createdAt,value
2022-11-16T00:00:04.321Z,100045.41
2022-11-16T00:02:53.995Z,100038.58
2022-11-16T00:05:27.984Z,100035.75
2022-11-16T00:07:58.020Z,100029.36
2022-11-16T00:10:26.297Z,100026.16
2022-11-16T00:12:54.532Z,100022.15
2022-11-16T00:15:23.249Z,100024.79
2022-11-16T00:17:51.496Z,100026.55
2022-11-16T00:20:19.799Z,100021.16
2022-11-16T00:22:47.980Z,100017.20
2022-11-16T00:25:16.284Z,100019.88
2022-11-16T00:27:44.844Z,100014.52
2022-11-16T00:30:13.613Z,100011.98
2022-11-16T00:32:41.822Z,100002.80
2022-11-16T00:35:10.385Z,100000.81
2022-11-16T00:37:38.660Z,99994.84
2022-11-16T00:40:08.351Z,99998.36
2022-11-16T00:42:36.949Z,99997.82
2022-11-16T00:45:05.666Z,99991.57
2022-11-16T00:47:33.952Z,99990.84
2022-11-16T00:50:02.221Z,99977.36
2022-11-16T00:52:30.810Z,99974.91
2022-11-16T00:54:59.637Z,99975.60
2022-11-16T00:57:28.007Z,99970.51
2022-11-16T00:59:56.236Z,99962.67
2022-11-16T01:02:24.855Z,99960.77
2022-11-16T01:04:53.166Z,99957.69
2022-11-16T01:07:21.495Z,99952.96
2022-11-16T01:09:49.760Z,99951.86
2022-11-16T01:12:18.546Z,99952.95
2022-11-16T01:14:48.350Z,99951.19
2022-11-16T01:17:16.580Z,99941.45
2022-11-16T01:19:44.844Z,99929.77
2022-11-16T01:22:13.090Z,99925.40
2022-11-16T01:24:41.407Z,99927.21
2022-11-16T01:27:09.643Z,99921.38
2022-11-16T01:29:40.120Z,99913.52
2022-11-16T01:32:08.890Z,99912.78
2022-11-16T01:34:37.267Z,99899.83
2022-11-16T01:37:12.286Z,99894.52
2022-11-16T01:39:42.734Z,99890.02
2022-11-16T01:42:20.008Z,99887.42
2022-11-16T01:44:49.592Z,99889.50
2022-11-16T01:47:19.612Z,99885.35
2022-11-16T01:49:55.295Z,99882.54
2022-11-16T01:52:33.828Z,99881.02
2022-11-16T01:55:04.106Z,99887.69
2022-11-16T01:57:45.944Z,99886.77
2022-11-16T02:00:15.407Z,99880.80
2022-11-16T02:02:48.753Z,99882.64
2022-11-16T02:05:56.104Z,99880.98
2022-11-16T02:09:17.183Z,99880.39
2022-11-16T02:12:06.595Z,99883.65
2022-11-16T02:14:49.990Z,99887.41
2022-11-16T02:18:23.279Z,99880.27
2022-11-16T02:21:07.478Z,99879.20
2022-11-16T02:24:03.000Z,99882.06
2022-11-16T02:27:14.073Z,99881.23
2022-11-16T02:29:52.177Z,99879.83
2022-11-16T02:32:50.147Z,99888.16
2022-11-16T02:35:40.723Z,99889.29
2022-11-16T02:38:19.654Z,99888.45
2022-11-16T02:40:53.928Z,99884.00
2022-11-16T02:43:37.850Z,99881.95
2022-11-16T02:46:13.193Z,99880.00
2022-11-16T02:48:47.926Z,99877.81
2022-11-16T02:51:17.813Z,99868.53
2022-11-16T02:54:13.169Z,99866.35
2022-11-16T02:56:52.909Z,99866.77
2022-11-16T02:59:30.455Z,99862.38
2022-11-16T03:02:35.695Z,99853.73
2022-11-16T03:05:15.069Z,99846.20
2022-11-16T03:08:04.343Z,99849.13
2022-11-16T03:10:55.566Z,99848.49
2022-11-16T03:13:28.566Z,99845.39
2022-11-16T03:16:00.364Z,99846.57
2022-11-16T03:18:32.216Z,99838.60
2022-11-16T03:21:12.818Z,99838.56
2022-11-16T03:23:41.277Z,99833.34
2022-11-16T03:26:12.801Z,99831.71
2022-11-16T03:28:50.461Z,99826.33
2022-11-16T03:31:28.036Z,99828.48
2022-11-16T03:34:01.175Z,99834.27
2022-11-16T03:36:40.899Z,99834.34
2022-11-16T03:39:15.835Z,99834.20
2022-11-16T03:41:47.959Z,99838.30
2022-11-16T03:44:18.984Z,99831.70
2022-11-16T03:46:47.955Z,99823.61
2022-11-16T03:49:21.513Z,99817.38
2022-11-16T03:51:51.302Z,99812.53
2022-11-16T03:54:20.228Z,99802.69
2022-11-16T03:56:48.454Z,99798.41
2022-11-16T03:59:16.826Z,99796.20
2022-11-16T04:01:46.265Z,99796.52
2022-11-16T04:04:34.891Z,99796.27
2022-11-16T04:07:22.950Z,99793.98
2022-11-16T04:10:09.886Z,99789.58
2022-11-16T04:13:03.288Z,99788.20
2022-11-16T04:15:50.055Z,99783.67
2022-11-16T04:18:37.710Z,99770.80
2022-11-16T04:21:26.912Z,99764.75
2022-11-16T04:24:13.215Z,99765.06
2022-11-16T04:27:04.271Z,99759.16
2022-11-16T04:29:33.886Z,99755.98
2022-11-16T04:33:01.473Z,99753.21
2022-11-16T04:35:47.953Z,99758.13
2022-11-16T04:38:16.314Z,99762.64
2022-11-16T04:40:44.605Z,99756.62
2022-11-16T04:43:13.893Z,99752.80
2022-11-16T04:46:02.181Z,99751.41
2022-11-16T04:48:36.700Z,99749.61
2022-11-16T04:51:05.722Z,99752.77
2022-11-16T04:53:34.384Z,99756.58
2022-11-16T04:56:08.479Z,99756.92
2022-11-16T04:58:36.980Z,99750.48
2022-11-16T05:01:05.489Z,99741.20
2022-11-16T05:03:34.623Z,99732.67
2022-11-16T05:06:03.025Z,99720.79
2022-11-16T05:08:31.802Z,99711.18
2022-11-16T05:11:00.785Z,99712.74
2022-11-16T05:13:30.010Z,99712.40
2022-11-16T05:15:58.651Z,99717.36
2022-11-16T05:18:27.227Z,99718.54
2022-11-16T05:21:01.410Z,99721.77
2022-11-16T05:23:50.915Z,99719.23
2022-11-16T05:26:21.305Z,99720.20
2022-11-16T05:28:49.955Z,99723.29
2022-11-16T05:31:18.274Z,99723.05
2022-11-16T05:33:46.566Z,99726.80
2022-11-16T05:36:15.187Z,99731.21
2022-11-16T05:38:43.643Z,99727.46
2022-11-16T05:41:12.542Z,99722.11
2022-11-16T05:43:41.193Z,99721.13
2022-11-16T05:46:22.435Z,99723.17
2022-11-16T05:48:51.446Z,99722.10
2022-11-16T05:51:19.666Z,99724.09
2022-11-16T05:53:49.575Z,99717.38
2022-11-16T05:56:20.729Z,99714.42
2022-11-16T05:58:49.520Z,99713.69
2022-11-16T06:01:18.099Z,99716.90
2022-11-16T06:03:46.475Z,99710.27
2022-11-16T06:06:14.810Z,99708.93
2022-11-16T06:08:43.448Z,99707.45
2022-11-16T06:11:14.813Z,99712.80
2022-11-16T06:13:44.520Z,99711.17
2022-11-16T06:16:13.167Z,99705.30
2022-11-16T06:18:45.052Z,99703.02
2022-11-16T06:21:16.937Z,99696.62
2022-11-16T06:23:45.917Z,99691.60
2022-11-16T06:26:14.324Z,99692.77
2022-11-16T06:28:42.810Z,99691.08
2022-11-16T06:31:11.123Z,99690.50
2022-11-16T06:33:42.281Z,99687.82
2022-11-16T06:36:17.880Z,99687.78
2022-11-16T06:38:46.541Z,99690.99
2022-11-16T06:41:14.911Z,99694.73
2022-11-16T06:43:46.035Z,99697.59
2022-11-16T06:46:15.372Z,99694.46
2022-11-16T06:48:43.832Z,99692.13
2022-11-16T06:51:13.966Z,99689.60
2022-11-16T06:53:42.805Z,99690.73
2022-11-16T06:56:13.544Z,99691.72
2022-11-16T06:58:44.776Z,99690.35
2022-11-16T07:01:13.987Z,99694.66
2022-11-16T07:03:44.165Z,99691.16
2022-11-16T07:06:14.241Z,99689.02
2022-11-16T07:08:44.329Z,99686.17
2022-11-16T07:11:12.837Z,99685.42
2022-11-16T07:13:41.137Z,99684.49
2022-11-16T07:16:11.842Z,99681.20
2022-11-16T07:18:44.236Z,99674.67
2022-11-16T07:21:16.252Z,99669.25
2022-11-16T07:23:45.143Z,99668.94
2022-11-16T07:26:17.372Z,99657.80
2022-11-16T07:28:49.932Z,99658.76
2022-11-16T07:31:20.946Z,99656.35
2022-11-16T07:33:54.239Z,99649.66
2022-11-16T07:37:12.189Z,99651.27
2022-11-16T07:39:41.532Z,99648.25
2022-11-16T07:42:11.881Z,99644.48
2022-11-16T07:45:08.269Z,99649.25
2022-11-16T07:47:40.440Z,99650.65
2022-11-16T07:50:11.125Z,99654.24
2022-11-16T07:52:39.409Z,99656.78
2022-11-16T07:55:11.392Z,99652.23
2022-11-16T07:57:39.847Z,99655.56
2022-11-16T08:00:09.940Z,99651.16
2022-11-16T08:02:47.814Z,99640.66
2022-11-16T08:05:19.450Z,99632.27
2022-11-16T08:07:49.661Z,99632.70
2022-11-16T08:10:19.126Z,99636.11
2022-11-16T08:12:47.450Z,99634.37
2022-11-16T08:15:15.969Z,99625.24
2022-11-16T08:17:44.425Z,99625.10
2022-11-16T08:20:13.842Z,99610.48
2022-11-16T08:22:43.033Z,99603.22
2022-11-16T08:25:12.336Z,99602.25
2022-11-16T08:27:40.801Z,99598.64
2022-11-16T08:30:10.231Z,99598.98
2022-11-16T08:32:39.432Z,99600.56
2022-11-16T08:35:08.449Z,99605.83
2022-11-16T08:37:36.838Z,99604.55
2022-11-16T08:40:05.862Z,99599.60
2022-11-16T08:42:42.262Z,99597.56
2022-11-16T08:45:11.943Z,99599.59
2022-11-16T08:47:40.385Z,99598.34
2022-11-16T08:50:09.733Z,99602.27
2022-11-16T08:52:38.658Z,99597.59
2022-11-16T08:55:07.893Z,99592.98
2022-11-16T08:57:36.707Z,99596.48
2022-11-16T09:00:09.287Z,99593.00
2022-11-16T09:02:38.756Z,99584.19
2022-11-16T09:05:08.267Z,99580.61
2022-11-16T09:07:36.567Z,99573.85
2022-11-16T09:10:06.111Z,99576.59
2022-11-16T09:12:35.344Z,99583.83
2022-11-16T09:15:06.240Z,99588.41
2022-11-16T09:17:34.649Z,99582.16
2022-11-16T09:20:03.943Z,99580.90
2022-11-16T09:22:32.196Z,99575.90
2022-11-16T09:25:00.538Z,99562.72
2022-11-16T09:27:28.819Z,99547.31
2022-11-16T09:29:57.062Z,99542.84
2022-11-16T09:32:25.333Z,99552.06
2022-11-16T09:34:53.911Z,99560.40
2022-11-16T09:37:22.317Z,99561.25
2022-11-16T09:39:50.850Z,99559.52
2022-11-16T09:43:18.262Z,99552.50
2022-11-16T09:46:26.318Z,99550.52
2022-11-16T09:48:57.555Z,99558.16
2022-11-16T09:51:29.839Z,99558.36
2022-11-16T09:54:05.545Z,99546.21
2022-11-16T09:56:40.222Z,99534.18
2022-11-16T09:59:11.069Z,99533.95
2022-11-16T10:02:02.082Z,99534.30
2022-11-16T10:04:38.453Z,99521.98
2022-11-16T10:07:16.056Z,99511.64
2022-11-16T10:09:45.380Z,99507.73
2022-11-16T10:12:43.782Z,99507.98
2022-11-16T10:15:36.800Z,99506.23
2022-11-16T10:18:15.558Z,99505.13
2022-11-16T10:21:18.884Z,99498.23
2022-11-16T10:24:00.733Z,99495.80
2022-11-16T10:26:47.033Z,99501.48
2022-11-16T10:30:09.413Z,99496.02
2022-11-16T10:33:10.885Z,99488.66
2022-11-16T10:35:53.308Z,99487.38
2022-11-16T10:38:27.660Z,99489.80
2022-11-16T10:41:03.575Z,99482.80
2022-11-16T10:43:33.576Z,99474.71
2022-11-16T10:46:36.484Z,99466.16
2022-11-16T10:49:16.532Z,99465.36
2022-11-16T10:51:44.995Z,99470.83
2022-11-16T10:54:18.194Z,99466.30
2022-11-16T10:57:02.600Z,99463.99
2022-11-16T10:59:49.241Z,99472.45
2022-11-16T11:02:28.406Z,99472.79
2022-11-16T11:05:21.978Z,99469.33
2022-11-16T11:08:01.685Z,99469.34
2022-11-16T11:10:38.895Z,99458.31
2022-11-16T11:13:10.170Z,99456.27
2022-11-16T11:15:40.620Z,99459.73
2022-11-16T11:18:19.176Z,99460.13
2022-11-16T11:21:04.708Z,99465.34
2022-11-16T11:23:46.920Z,99466.48
2022-11-16T11:26:36.494Z,99461.61
2022-11-16T11:29:36.167Z,99462.17
2022-11-16T11:32:08.534Z,99461.73
2022-11-16T11:34:44.906Z,99466.45
2022-11-16T11:37:19.179Z,99465.45
2022-11-16T11:39:47.618Z,99464.33
2022-11-16T11:42:15.833Z,99454.27
2022-11-16T11:44:50.303Z,99452.22
2022-11-16T11:51:06.217Z,99446.45
2022-11-16T11:53:56.422Z,99451.16
2022-11-16T11:56:27.805Z,99450.80
2022-11-16T11:58:56.951Z,99445.98
2022-11-16T12:01:44.620Z,99442.01
2022-11-16T12:04:24.903Z,99437.85
2022-11-16T12:07:14.589Z,99438.98
2022-11-16T12:09:48.705Z,99431.52
2022-11-16T12:12:53.436Z,99419.45
2022-11-16T12:16:08.938Z,99420.01
2022-11-16T12:19:04.497Z,99431.22
2022-11-16T12:22:00.622Z,99434.51
2022-11-16T12:24:38.841Z,99428.98
2022-11-16T12:27:30.173Z,99426.10
2022-11-16T12:29:58.554Z,99420.71
2022-11-16T12:33:02.107Z,99419.63
2022-11-16T12:35:42.592Z,99413.87
2022-11-16T12:38:19.463Z,99408.51
2022-11-16T12:41:17.545Z,99407.98
2022-11-16T12:43:58.010Z,99411.02
2022-11-16T12:47:07.684Z,99421.51
2022-11-16T12:50:35.727Z,99424.03
2022-11-16T12:53:35.129Z,99424.25
2022-11-16T12:56:15.719Z,99418.40
2022-11-16T12:59:31.730Z,99411.89
2022-11-16T13:02:27.988Z,99408.95
2022-11-16T13:05:35.737Z,99409.60
2022-11-16T13:08:34.319Z,99411.11
2022-11-16T13:11:15.920Z,99405.09
2022-11-16T13:13:51.651Z,99406.52
2022-11-16T13:16:24.489Z,99406.14
2022-11-16T13:18:54.845Z,99402.27
2022-11-16T13:21:57.296Z,99400.92
2022-11-16T13:25:14.252Z,99398.60
2022-11-16T13:28:33.482Z,99396.55
2022-11-16T13:31:53.970Z,99392.98
2022-11-16T13:34:33.030Z,99395.20
2022-11-16T13:37:02.296Z,99395.05
2022-11-16T13:39:58.384Z,99399.65
2022-11-16T13:42:27.414Z,99399.89
2022-11-16T13:45:52.134Z,99395.43
2022-11-16T13:48:38.551Z,99390.42
2022-11-16T13:51:18.646Z,99392.86
2022-11-16T13:54:43.224Z,99393.56
2022-11-16T13:56:50.212Z,99387.42
2022-11-16T13:59:26.178Z,99386.26
2022-11-16T14:02:01.168Z,99380.37
2022-11-16T14:04:59.480Z,99379.64
2022-11-16T14:07:31.039Z,99374.70
2022-11-16T14:10:00.948Z,99373.07
2022-11-16T14:12:54.045Z,99384.02
2022-11-16T14:15:32.980Z,99388.14
2022-11-16T14:18:21.747Z,99385.84
2022-11-16T14:20:59.363Z,99383.77
2022-11-16T14:23:58.532Z,99386.69
2022-11-16T14:26:45.522Z,99375.02
2022-11-16T14:29:32.600Z,99385.80
2022-11-16T14:32:04.810Z,99389.45
2022-11-16T14:34:41.803Z,99389.06
2022-11-16T14:37:22.309Z,99388.09
2022-11-16T14:39:53.925Z,99381.53
2022-11-16T14:42:34.533Z,99372.14
2022-11-16T14:45:24.252Z,99366.34
2022-11-16T14:48:15.937Z,99370.30
2022-11-16T14:50:47.980Z,99373.73
2022-11-16T14:53:19.747Z,99381.80
2022-11-16T14:55:48.493Z,99388.01
2022-11-16T14:58:20.799Z,99393.86
2022-11-16T15:01:14.812Z,99388.88
2022-11-16T15:03:58.978Z,99392.65
2022-11-16T15:06:28.483Z,99390.41
2022-11-16T15:09:03.807Z,99384.30
2022-11-16T15:11:56.581Z,99376.96
2022-11-16T15:14:31.116Z,99377.37
2022-11-16T15:17:00.479Z,99372.05
2022-11-16T15:19:30.858Z,99364.50
2022-11-16T15:22:01.606Z,99366.06
2022-11-16T15:24:35.246Z,99361.55
2022-11-16T15:27:26.182Z,99366.88
2022-11-16T15:29:54.849Z,99373.25
2022-11-16T15:32:23.549Z,99371.59
2022-11-16T15:34:54.593Z,99371.41
2022-11-16T15:37:31.022Z,99369.16
2022-11-16T15:40:00.806Z,99369.23
2022-11-16T15:42:29.858Z,99371.60
2022-11-16T15:45:01.996Z,99372.16
2022-11-16T15:47:30.819Z,99368.30
2022-11-16T15:49:59.526Z,99372.42
2022-11-16T15:52:55.351Z,99377.23
2022-11-16T15:55:40.816Z,99378.42
2022-11-16T15:58:27.627Z,99387.45
2022-11-16T16:00:58.996Z,99387.90
2022-11-16T16:03:34.877Z,99387.97
2022-11-16T16:06:05.149Z,99385.11
2022-11-16T16:08:39.412Z,99377.39
2022-11-16T16:11:16.735Z,99376.17
2022-11-16T16:13:58.076Z,99367.84
2022-11-16T16:16:42.630Z,99358.58
2022-11-16T16:19:43.240Z,99351.83
2022-11-16T16:22:33.780Z,99350.13
2022-11-16T16:25:04.800Z,99347.48
2022-11-16T16:27:40.731Z,99353.19
2022-11-16T16:30:14.683Z,99355.55
2022-11-16T16:32:51.850Z,99361.49
2022-11-16T16:35:23.552Z,99365.11
2022-11-16T16:38:01.054Z,99363.23
2022-11-16T16:40:29.854Z,99366.36
2022-11-16T16:42:58.515Z,99372.20
2022-11-16T16:45:43.492Z,99379.15
2022-11-16T16:48:12.774Z,99377.27
2022-11-16T16:50:41.368Z,99373.36
2022-11-16T16:53:13.984Z,99369.81
2022-11-16T16:55:43.674Z,99365.52
2022-11-16T16:58:13.468Z,99370.49
2022-11-16T17:00:42.499Z,99368.25
2022-11-16T17:03:11.263Z,99359.91
2022-11-16T17:05:39.738Z,99366.16
2022-11-16T17:08:08.170Z,99371.45
2022-11-16T17:10:39.034Z,99375.11
2022-11-16T17:13:07.429Z,99380.98
2022-11-16T17:15:35.826Z,99383.38
2022-11-16T17:18:04.316Z,99380.21
2022-11-16T17:20:33.229Z,99383.62
2022-11-16T17:23:01.581Z,99390.39
2022-11-16T17:25:33.024Z,99389.09
2022-11-16T17:28:01.404Z,99393.04
2022-11-16T17:30:30.193Z,99393.48
2022-11-16T17:32:58.568Z,99393.90
2022-11-16T17:35:27.092Z,99392.86
2022-11-16T17:37:55.446Z,99385.41
2022-11-16T17:40:23.836Z,99386.57
2022-11-16T17:42:52.213Z,99385.81
2022-11-16T17:45:20.609Z,99380.94
2022-11-16T17:47:49.057Z,99380.89
2022-11-16T17:50:17.624Z,99385.00
2022-11-16T17:52:46.035Z,99388.14
2022-11-16T17:55:14.472Z,99386.10
2022-11-16T17:57:42.840Z,99380.49
2022-11-16T18:00:12.285Z,99373.39
2022-11-16T18:02:40.656Z,99372.74
2022-11-16T18:05:09.952Z,99376.54
2022-11-16T18:07:40.317Z,99383.13
2022-11-16T18:10:09.036Z,99383.50
2022-11-16T18:12:38.616Z,99379.58
2022-11-16T18:15:27.354Z,99379.58
2022-11-16T18:17:57.159Z,99378.20
2022-11-16T18:20:27.702Z,99378.60
2022-11-16T18:22:57.630Z,99375.61
2022-11-16T18:25:26.004Z,99366.58
2022-11-16T18:27:55.686Z,99359.11
2022-11-16T18:30:24.305Z,99353.80
2022-11-16T18:32:52.517Z,99350.39
2022-11-16T18:35:20.739Z,99348.69
2022-11-16T18:37:49.064Z,99351.54
2022-11-16T18:40:18.180Z,99356.34
2022-11-16T18:42:46.504Z,99354.05
2022-11-16T18:45:14.745Z,99359.01
2022-11-16T18:47:42.970Z,99360.21
2022-11-16T18:50:19.057Z,99353.09
2022-11-16T18:52:49.641Z,99352.27
2022-11-16T18:55:17.985Z,99355.19
2022-11-16T18:57:46.210Z,99346.70
2022-11-16T19:00:15.550Z,99342.67
2022-11-16T19:02:43.775Z,99338.23
2022-11-16T19:05:11.979Z,99331.02
2022-11-16T19:07:40.200Z,99329.08
2022-11-16T19:10:09.459Z,99325.30
2022-11-16T19:12:37.755Z,99324.70
2022-11-16T19:15:06.899Z,99326.44
2022-11-16T19:17:43.660Z,99325.05
2022-11-16T19:20:23.672Z,99323.80
2022-11-16T19:22:52.088Z,99323.67
2022-11-16T19:25:20.569Z,99324.86
2022-11-16T19:27:48.978Z,99323.19
2022-11-16T19:30:18.307Z,99326.61
2022-11-16T19:32:46.569Z,99329.06
2022-11-16T19:35:16.373Z,99323.63
2022-11-16T19:37:44.583Z,99330.52
2022-11-16T19:40:13.252Z,99328.59
2022-11-16T19:42:42.949Z,99337.64
2022-11-16T19:45:12.050Z,99338.75
2022-11-16T19:47:40.339Z,99335.77
2022-11-16T19:50:10.870Z,99339.30
2022-11-16T19:52:39.227Z,99335.96
2022-11-16T19:55:07.962Z,99342.06
2022-11-16T19:57:36.364Z,99339.80
2022-11-16T20:00:05.310Z,99333.17
2022-11-16T20:02:33.501Z,99333.39
2022-11-16T20:05:01.757Z,99320.95
2022-11-16T20:07:30.271Z,99316.89
2022-11-16T20:09:58.545Z,99308.05
2022-11-16T20:12:26.970Z,99307.30
2022-11-16T20:14:55.326Z,99304.88
2022-11-16T20:17:23.678Z,99302.41
2022-11-16T20:19:51.928Z,99300.35
2022-11-16T20:22:20.175Z,99300.94
2022-11-16T20:24:48.507Z,99299.25
2022-11-16T20:27:16.738Z,99297.13
2022-11-16T20:29:44.937Z,99293.14
2022-11-16T20:32:13.149Z,99292.98
2022-11-16T20:34:41.374Z,99292.25
2022-11-16T20:37:09.595Z,99293.27
2022-11-16T20:39:37.838Z,99288.31
2022-11-16T20:42:06.119Z,99283.48
2022-11-16T20:44:34.335Z,99277.42
2022-11-16T20:47:02.535Z,99282.27
2022-11-16T20:49:30.807Z,99285.17
2022-11-16T20:51:59.075Z,99289.14
2022-11-16T20:54:27.365Z,99290.28
2022-11-16T20:56:55.648Z,99285.00
2022-11-16T20:59:23.866Z,99280.91
2022-11-16T21:01:55.171Z,99279.76
2022-11-16T21:04:23.513Z,99279.20
2022-11-16T21:06:51.995Z,99278.94
2022-11-16T21:09:22.988Z,99278.76
2022-11-16T21:12:10.124Z,99271.47
2022-11-16T21:14:38.471Z,99273.96
2022-11-16T21:17:06.799Z,99277.86
2022-11-16T21:19:35.057Z,99283.39
2022-11-16T21:22:03.306Z,99280.52
2022-11-16T21:24:32.362Z,99283.29
2022-11-16T21:27:00.668Z,99276.83
2022-11-16T21:29:28.984Z,99280.06
2022-11-16T21:31:57.342Z,99281.30
2022-11-16T21:34:28.013Z,99277.88
2022-11-16T21:36:56.363Z,99276.61
2022-11-16T21:39:25.338Z,99273.05
2022-11-16T21:41:53.753Z,99266.77
2022-11-16T21:44:21.970Z,99272.91
2022-11-16T21:46:50.215Z,99274.04
2022-11-16T21:49:18.509Z,99273.88
2022-11-16T21:51:46.713Z,99267.86
2022-11-16T21:54:15.143Z,99264.15
2022-11-16T21:56:43.370Z,99260.94
2022-11-16T21:59:11.582Z,99255.05
2022-11-16T22:01:59.464Z,99252.64
2022-11-16T22:04:46.518Z,99259.80
2022-11-16T22:07:33.932Z,99261.68
2022-11-16T22:10:11.614Z,99264.52
2022-11-16T22:12:39.854Z,99265.90
2022-11-16T22:15:09.247Z,99267.82
2022-11-16T22:17:43.600Z,99271.66
2022-11-16T22:20:12.050Z,99274.42
2022-11-16T22:22:40.248Z,99277.95
2022-11-16T22:25:08.980Z,99278.00
2022-11-16T22:27:58.439Z,99275.45
2022-11-16T22:30:25.613Z,99279.14
2022-11-16T22:32:53.837Z,99277.17
2022-11-16T22:35:22.144Z,99268.96
2022-11-16T22:37:50.411Z,99273.88
2022-11-16T22:40:18.601Z,99279.39
2022-11-16T22:42:46.799Z,99279.55
2022-11-16T22:45:14.997Z,99284.52
2022-11-16T22:47:43.264Z,99287.81
2022-11-16T22:50:11.915Z,99283.92
2022-11-16T22:52:40.167Z,99282.95
2022-11-16T22:55:09.007Z,99276.35
2022-11-16T22:57:37.251Z,99274.20
2022-11-16T23:00:06.855Z,99270.52
2022-11-16T23:02:35.125Z,99263.84
2022-11-16T23:05:03.416Z,99257.88
2022-11-16T23:07:31.712Z,99259.29
2022-11-16T23:10:00.016Z,99255.80
2022-11-16T23:12:46.647Z,99254.80
2022-11-16T23:15:33.306Z,99245.09
2022-11-16T23:18:01.565Z,99237.06
2022-11-16T23:20:48.008Z,99230.35
2022-11-16T23:23:36.780Z,99223.34
2022-11-16T23:26:35.105Z,99217.71
2022-11-16T23:29:08.007Z,99214.46
2022-11-16T23:31:37.926Z,99206.71
2022-11-16T23:34:06.163Z,99206.10
2022-11-16T23:36:34.408Z,99199.59
2022-11-16T23:39:02.713Z,99195.71
2022-11-16T23:41:49.391Z,99198.61
2022-11-16T23:44:17.682Z,99200.77
2022-11-16T23:46:45.901Z,99199.83
2022-11-16T23:49:14.057Z,99184.42
2022-11-16T23:51:42.320Z,99184.95
2022-11-16T23:54:10.606Z,99186.79
2022-11-16T23:56:38.795Z,99182.40
2022-11-16T23:59:07.192Z,99180.25
